createdAt,value
2018-07-26T00:01:30.984Z,3.20
2018-07-26T00:04:00.057Z,4.60
2018-07-26T00:06:29.147Z,3.17
2018-07-26T00:08:58.218Z,5.90
2018-07-26T00:11:27.270Z,4.93
2018-07-26T00:13:56.130Z,5.03
2018-07-26T00:16:25.052Z,4.80
2018-07-26T00:18:54.107Z,3.47
2018-07-26T00:21:23.159Z,3.33
2018-07-26T00:23:52.007Z,4.00
2018-07-26T00:26:20.925Z,4.00
2018-07-26T00:28:49.992Z,4.00
2018-07-26T00:31:19.311Z,4.23
2018-07-26T00:33:48.384Z,3.20
2018-07-26T00:36:17.430Z,3.23
2018-07-26T00:38:46.235Z,3.50
2018-07-26T00:41:15.183Z,4.50
2018-07-26T00:43:44.609Z,3.57
2018-07-26T00:46:13.654Z,3.70
2018-07-26T00:48:42.745Z,5.70
2018-07-26T00:51:11.785Z,4.80
2018-07-26T00:53:40.836Z,4.20
2018-07-26T00:56:09.905Z,4.10
2018-07-26T00:58:38.698Z,4.40
2018-07-26T01:01:07.631Z,6.07
2018-07-26T01:03:36.670Z,4.00
2018-07-26T01:06:05.739Z,5.67
2018-07-26T01:08:34.784Z,4.53
2018-07-26T01:11:03.852Z,5.43
2018-07-26T01:13:32.695Z,4.73
2018-07-26T01:16:01.649Z,4.73
2018-07-26T01:18:30.435Z,4.10
2018-07-26T01:20:59.371Z,4.30
2018-07-26T01:23:28.420Z,5.17
2018-07-26T01:25:57.479Z,4.37
2018-07-26T01:28:26.540Z,3.63
2018-07-26T01:30:55.612Z,4.23
2018-07-26T01:33:24.679Z,6.27
2018-07-26T01:35:53.759Z,4.40
2018-07-26T01:38:22.819Z,4.40
2018-07-26T01:40:51.882Z,6.10
2018-07-26T01:43:52.530Z,3.67
2018-07-26T01:46:22.708Z,4.67
2018-07-26T01:48:51.891Z,4.43
2018-07-26T01:51:20.967Z,4.30
2018-07-26T01:53:50.008Z,4.03
2018-07-26T01:56:19.088Z,3.70
2018-07-26T01:58:48.144Z,4.20
2018-07-26T02:01:17.559Z,4.33
2018-07-26T02:03:46.611Z,5.73
2018-07-26T02:06:15.700Z,4.30
2018-07-26T02:08:44.760Z,3.90
2018-07-26T02:11:13.834Z,6.63
2018-07-26T02:13:42.654Z,4.07
2018-07-26T02:16:11.606Z,4.33
2018-07-26T02:18:40.651Z,6.90
2018-07-26T02:21:09.736Z,4.07
2018-07-26T02:23:38.783Z,3.70
2018-07-26T02:26:07.832Z,4.57
2018-07-26T02:28:36.896Z,4.37
2018-07-26T02:31:05.735Z,4.40
2018-07-26T02:33:34.685Z,3.90
2018-07-26T02:36:03.483Z,4.30
2018-07-26T02:38:32.171Z,4.13
2018-07-26T02:41:00.874Z,4.43
2018-07-26T02:43:29.816Z,4.50
2018-07-26T02:45:58.872Z,4.57
2018-07-26T02:48:27.931Z,5.30
2018-07-26T02:50:56.983Z,4.37
2018-07-26T02:53:26.068Z,4.53
2018-07-26T02:55:55.121Z,4.40
2018-07-26T02:58:24.204Z,4.90
2018-07-26T03:00:53.247Z,5.30
2018-07-26T03:03:22.324Z,4.97
2018-07-26T03:05:51.380Z,4.93
2018-07-26T03:08:20.467Z,6.23
2018-07-26T03:10:49.518Z,4.53
2018-07-26T03:13:18.576Z,5.17
2018-07-26T03:15:47.673Z,4.90
2018-07-26T03:18:16.747Z,7.33
2018-07-26T03:20:45.826Z,5.00
2018-07-26T03:23:14.889Z,5.77
2018-07-26T03:25:44.224Z,4.70
2018-07-26T03:28:13.283Z,5.80
2018-07-26T03:30:42.355Z,4.83
2018-07-26T03:33:11.453Z,7.87
2018-07-26T03:35:41.199Z,8.20
2018-07-26T03:38:10.144Z,5.13
2018-07-26T03:40:39.271Z,4.60
2018-07-26T03:43:08.323Z,5.10
2018-07-26T03:45:37.415Z,5.10
2018-07-26T03:48:06.576Z,4.67
2018-07-26T03:50:35.676Z,4.33
2018-07-26T03:53:04.731Z,4.97
2018-07-26T03:55:33.797Z,7.03
2018-07-26T03:58:02.859Z,5.93
2018-07-26T04:00:31.927Z,6.77
2018-07-26T04:03:00.780Z,5.73
2018-07-26T04:05:29.760Z,7.03
2018-07-26T04:07:58.802Z,5.53
2018-07-26T04:10:27.635Z,9.53
2018-07-26T04:12:56.595Z,5.87
2018-07-26T04:15:25.430Z,7.23
2018-07-26T04:18:04.335Z,5.33
2018-07-26T04:20:33.843Z,9.37
2018-07-26T04:23:03.165Z,9.40
2018-07-26T04:25:32.499Z,8.67
2018-07-26T04:28:02.286Z,10.43
2018-07-26T04:30:31.336Z,6.77
2018-07-26T04:33:00.392Z,7.73
2018-07-26T04:35:29.427Z,7.43
2018-07-26T04:37:58.495Z,10.40
2018-07-26T04:40:27.535Z,7.90
2018-07-26T04:42:56.649Z,8.67
2018-07-26T04:45:25.662Z,9.27
2018-07-26T04:47:54.740Z,9.50
2018-07-26T04:50:23.775Z,10.47
2018-07-26T04:52:52.884Z,10.30
2018-07-26T04:55:21.908Z,12.90
2018-07-26T04:57:51.044Z,8.00
2018-07-26T05:00:20.255Z,8.87
2018-07-26T05:02:49.296Z,8.43
2018-07-26T05:05:18.364Z,10.17
2018-07-26T05:07:47.403Z,7.53
2018-07-26T05:10:16.564Z,7.83
2018-07-26T05:12:45.347Z,9.53
2018-07-26T05:15:14.314Z,9.37
2018-07-26T05:17:43.366Z,12.90
2018-07-26T05:20:12.437Z,13.90
2018-07-26T05:22:41.240Z,14.43
2018-07-26T05:25:10.184Z,9.90
2018-07-26T05:27:39.253Z,15.33
2018-07-26T05:30:08.339Z,15.80
2018-07-26T05:32:37.391Z,10.90
2018-07-26T05:35:06.470Z,16.20
2018-07-26T05:37:35.575Z,11.20
2018-07-26T05:40:05.267Z,11.03
2018-07-26T05:42:34.340Z,15.63
2018-07-26T05:45:03.442Z,9.63
2018-07-26T05:47:32.567Z,15.70
2018-07-26T05:50:01.675Z,10.53
2018-07-26T05:52:30.732Z,15.27
2018-07-26T05:54:59.804Z,9.20
2018-07-26T05:57:28.843Z,8.80
2018-07-26T05:59:57.892Z,9.93
2018-07-26T06:02:26.963Z,7.20
2018-07-26T06:04:56.041Z,7.03
2018-07-26T06:07:25.104Z,8.33
2018-07-26T06:09:54.148Z,10.30
2018-07-26T06:12:23.224Z,3.90
2018-07-26T06:14:52.279Z,6.63
2018-07-26T06:17:21.344Z,4.60
2018-07-26T06:19:50.134Z,4.37
2018-07-26T06:22:19.074Z,4.47
2018-07-26T06:24:48.151Z,8.77
2018-07-26T06:27:17.219Z,4.20
2018-07-26T06:29:46.012Z,6.43
2018-07-26T06:32:14.723Z,10.53
2018-07-26T06:34:43.391Z,9.07
2018-07-26T06:37:12.347Z,7.57
2018-07-26T06:39:41.397Z,5.63
2018-07-26T06:42:10.832Z,4.10
2018-07-26T06:44:39.880Z,3.60
2018-07-26T06:47:08.756Z,7.67
2018-07-26T06:49:37.631Z,4.27
2018-07-26T06:52:07.039Z,4.83
2018-07-26T06:54:36.120Z,4.43
2018-07-26T06:57:05.184Z,9.97
2018-07-26T06:59:34.232Z,4.17
2018-07-26T07:02:03.303Z,5.60
2018-07-26T07:04:32.351Z,3.87
2018-07-26T07:07:01.159Z,4.27
2018-07-26T07:09:29.832Z,16.57
2018-07-26T07:11:58.768Z,12.07
2018-07-26T07:14:27.835Z,4.47
2018-07-26T07:16:56.902Z,4.37
2018-07-26T07:19:25.952Z,12.10
2018-07-26T07:21:55.016Z,5.40
2018-07-26T07:24:24.059Z,3.77
2018-07-26T07:26:53.836Z,3.67
2018-07-26T07:29:23.357Z,3.60
2018-07-26T07:31:52.395Z,6.73
2018-07-26T07:34:21.455Z,9.03
2018-07-26T07:36:50.507Z,6.70
2018-07-26T07:39:19.320Z,5.53
2018-07-26T07:41:48.268Z,7.77
2018-07-26T07:44:17.327Z,10.27
2018-07-26T07:46:46.372Z,5.63
2018-07-26T07:49:15.179Z,7.83
2018-07-26T07:51:43.847Z,4.80
2018-07-26T07:54:12.788Z,7.73
2018-07-26T07:56:41.825Z,5.13
2018-07-26T07:59:10.880Z,6.50
2018-07-26T08:01:39.919Z,6.40
2018-07-26T08:04:08.980Z,8.00
2018-07-26T08:06:38.066Z,6.87
2018-07-26T08:09:09.116Z,3.97
2018-07-26T08:11:38.169Z,5.47
2018-07-26T08:14:07.926Z,7.17
2018-07-26T08:16:36.989Z,5.83
2018-07-26T08:19:06.336Z,4.43
2018-07-26T08:21:35.404Z,7.50
2018-07-26T08:24:04.491Z,3.77
2018-07-26T08:26:33.548Z,5.72
2018-07-26T08:29:02.610Z,5.53
2018-07-26T08:31:31.675Z,6.22
2018-07-26T08:34:00.756Z,2.95
2018-07-26T08:36:29.806Z,9.28
2018-07-26T08:38:58.874Z,7.20
2018-07-26T08:41:27.951Z,3.45
2018-07-26T08:43:57.016Z,7.70
2018-07-26T08:46:26.092Z,7.22
2018-07-26T08:48:54.883Z,4.58
2018-07-26T08:51:23.836Z,10.10
2018-07-26T08:53:52.888Z,4.83
2018-07-26T08:56:21.967Z,4.62
2018-07-26T08:58:51.020Z,8.85
2018-07-26T09:01:20.099Z,2.87
2018-07-26T09:03:49.168Z,2.42
2018-07-26T09:06:18.250Z,3.95
2018-07-26T09:08:47.311Z,2.42
2018-07-26T09:11:16.383Z,5.92
2018-07-26T09:13:45.194Z,2.30
2018-07-26T09:16:14.171Z,3.02
2018-07-26T09:18:43.219Z,2.37
2018-07-26T09:21:12.292Z,4.00
2018-07-26T09:23:41.356Z,2.22
2018-07-26T09:26:10.196Z,2.20
2018-07-26T09:28:39.136Z,2.40
2018-07-26T09:31:08.211Z,3.47
2018-07-26T09:33:37.279Z,6.62
2018-07-26T09:36:06.358Z,4.80
2018-07-26T09:38:35.411Z,6.08
2018-07-26T09:41:04.271Z,10.40
2018-07-26T09:43:33.200Z,13.05
2018-07-26T09:46:02.280Z,2.62
2018-07-26T09:48:31.327Z,2.30
2018-07-26T09:51:00.400Z,4.65
2018-07-26T09:53:29.457Z,2.80
2018-07-26T09:55:58.543Z,2.67
2018-07-26T09:58:27.608Z,1.80
2018-07-26T10:01:02.063Z,5.92
2018-07-26T10:03:31.123Z,2.67
2018-07-26T10:06:00.187Z,2.45
2018-07-26T10:08:28.986Z,2.90
2018-07-26T10:10:57.943Z,2.20
2018-07-26T10:13:26.741Z,3.60
2018-07-26T10:15:55.722Z,2.22
2018-07-26T10:18:24.792Z,1.90
2018-07-26T10:20:53.844Z,2.05
2018-07-26T10:23:22.912Z,2.27
2018-07-26T10:25:51.991Z,3.17
2018-07-26T10:28:21.063Z,2.15
2018-07-26T10:30:50.102Z,1.87
2018-07-26T10:33:19.180Z,1.77
2018-07-26T10:35:48.240Z,1.98
2018-07-26T10:38:17.316Z,2.20
2018-07-26T10:40:46.159Z,2.60
2018-07-26T10:43:15.119Z,2.45
2018-07-26T10:45:44.177Z,2.52
2018-07-26T10:48:13.251Z,4.35
2018-07-26T10:50:42.396Z,3.98
2018-07-26T10:53:11.259Z,2.65
2018-07-26T10:55:40.192Z,2.25
2018-07-26T10:58:09.275Z,2.25
2018-07-26T11:00:38.067Z,2.75
2018-07-26T11:03:07.196Z,2.35
2018-07-26T11:05:36.242Z,3.17
2018-07-26T11:08:05.339Z,2.55
2018-07-26T11:10:34.393Z,3.75
2018-07-26T11:13:03.473Z,2.50
2018-07-26T11:15:34.009Z,3.10
2018-07-26T11:18:03.416Z,4.25
2018-07-26T11:20:32.455Z,3.40
2018-07-26T11:23:01.520Z,2.77
2018-07-26T11:25:30.622Z,3.75
2018-07-26T11:27:59.673Z,5.08
2018-07-26T11:30:28.727Z,3.58
2018-07-26T11:32:57.796Z,5.30
2018-07-26T11:35:26.857Z,5.10
2018-07-26T11:37:55.731Z,3.77
2018-07-26T11:40:24.632Z,5.20
2018-07-26T11:42:53.674Z,3.55
2018-07-26T11:45:29.131Z,6.00
2018-07-26T11:47:58.174Z,5.67
2018-07-26T11:50:27.019Z,6.95
2018-07-26T11:52:55.935Z,3.50
2018-07-26T11:55:25.014Z,3.27
2018-07-26T11:57:54.142Z,3.90
2018-07-26T12:00:23.214Z,2.92
2018-07-26T12:02:52.269Z,3.00
2018-07-26T12:05:21.333Z,3.67
2018-07-26T12:07:50.130Z,3.27
2018-07-26T12:10:19.741Z,4.03
2018-07-26T12:12:48.712Z,3.20
2018-07-26T12:15:17.820Z,3.58
2018-07-26T12:17:46.624Z,4.22
2018-07-26T12:20:15.327Z,3.47
2018-07-26T12:22:44.236Z,3.30
2018-07-26T12:25:13.295Z,3.75
2018-07-26T12:27:42.100Z,3.52
2018-07-26T12:30:10.791Z,3.25
2018-07-26T12:32:39.707Z,3.35
2018-07-26T12:35:08.782Z,4.85
2018-07-26T12:37:37.825Z,3.87
2018-07-26T12:40:06.911Z,3.40
2018-07-26T12:42:35.963Z,3.55
2018-07-26T12:45:05.709Z,3.75
2018-07-26T12:47:34.797Z,4.35
2018-07-26T12:50:04.258Z,3.35
2018-07-26T12:52:33.080Z,3.20
2018-07-26T12:55:02.000Z,2.98
2018-07-26T12:57:31.069Z,2.95
2018-07-26T13:00:00.112Z,5.75
2018-07-26T13:02:29.195Z,3.40
2018-07-26T13:04:58.236Z,3.15
2018-07-26T13:07:27.299Z,3.15
2018-07-26T13:09:56.338Z,4.30
2018-07-26T13:12:25.431Z,5.87
2018-07-26T13:14:54.564Z,3.30
2018-07-26T13:17:23.607Z,3.45
2018-07-26T13:19:52.419Z,3.20
2018-07-26T13:22:21.368Z,3.17
2018-07-26T13:24:50.819Z,4.45
2018-07-26T13:27:20.020Z,2.90
2018-07-26T13:29:49.030Z,3.15
2018-07-26T13:32:18.096Z,3.22
2018-07-26T13:34:47.148Z,3.22
2018-07-26T13:37:16.175Z,3.35
2018-07-26T13:39:45.110Z,3.00
2018-07-26T13:42:16.866Z,3.30
2018-07-26T13:44:46.059Z,3.30
2018-07-26T13:47:15.240Z,3.52
2018-07-26T13:49:44.321Z,2.70
2018-07-26T13:52:13.468Z,2.55
2018-07-26T13:54:42.604Z,3.17
2018-07-26T13:57:11.778Z,3.33
2018-07-26T13:59:40.832Z,2.83
2018-07-26T14:02:09.897Z,4.20
2018-07-26T14:04:38.981Z,3.02
2018-07-26T14:07:08.053Z,2.77
2018-07-26T14:09:37.132Z,2.83
2018-07-26T14:12:06.192Z,3.35
2018-07-26T14:14:35.047Z,2.80
2018-07-26T14:17:03.972Z,2.90
2018-07-26T14:19:33.036Z,2.70
2018-07-26T14:22:02.089Z,2.52
2018-07-26T14:24:31.189Z,2.85
2018-07-26T14:27:00.243Z,2.30
2018-07-26T14:29:29.333Z,3.17
2018-07-26T14:31:58.391Z,2.40
2018-07-26T14:34:27.640Z,2.35
2018-07-26T14:36:56.835Z,2.47
2018-07-26T14:39:26.076Z,2.62
2018-07-26T14:41:55.211Z,2.20
2018-07-26T14:44:24.277Z,2.92
2018-07-26T14:46:53.328Z,4.70
2018-07-26T14:49:22.454Z,2.62
2018-07-26T14:51:51.522Z,2.60
2018-07-26T14:54:20.481Z,2.92
2018-07-26T14:56:49.418Z,4.00
2018-07-26T14:59:18.544Z,2.80
2018-07-26T15:01:47.597Z,2.62
2018-07-26T15:04:16.664Z,2.70
2018-07-26T15:06:45.936Z,2.72
2018-07-26T15:09:15.004Z,3.05
2018-07-26T15:11:43.859Z,2.85
2018-07-26T15:14:12.923Z,3.12
2018-07-26T15:16:41.999Z,2.75
2018-07-26T15:19:11.053Z,2.50
2018-07-26T15:21:40.116Z,3.17
2018-07-26T15:24:09.214Z,4.08
2018-07-26T15:26:38.297Z,3.35
2018-07-26T15:29:07.354Z,3.37
2018-07-26T15:31:36.191Z,3.52
2018-07-26T15:34:05.123Z,3.10
2018-07-26T15:36:34.204Z,3.27
2018-07-26T15:39:03.636Z,3.90
2018-07-26T15:41:32.712Z,3.37
2018-07-26T15:44:01.793Z,2.90
2018-07-26T15:46:30.864Z,3.30
2018-07-26T15:48:59.947Z,3.12
2018-07-26T15:51:29.050Z,2.98
2018-07-26T15:53:58.089Z,6.12
2018-07-26T15:56:27.165Z,2.87
2018-07-26T15:58:56.220Z,2.30
2018-07-26T16:01:25.055Z,2.62
2018-07-26T16:03:53.975Z,3.85
2018-07-26T16:06:23.092Z,3.15
2018-07-26T16:08:51.916Z,2.95
2018-07-26T16:11:21.139Z,3.00
2018-07-26T16:13:50.220Z,2.85
2018-07-26T16:16:19.299Z,2.52
2018-07-26T16:18:48.341Z,3.10
2018-07-26T16:21:17.416Z,4.10
2018-07-26T16:23:46.540Z,4.37
2018-07-26T16:26:15.619Z,4.35
2018-07-26T16:28:44.753Z,3.22
2018-07-26T16:31:14.078Z,3.22
2018-07-26T16:33:43.131Z,3.20
2018-07-26T16:36:12.240Z,3.15
2018-07-26T16:38:41.312Z,3.15
2018-07-26T16:41:10.360Z,5.33
2018-07-26T16:43:39.433Z,3.83
2018-07-26T16:46:08.683Z,5.58
2018-07-26T16:48:37.740Z,5.55
2018-07-26T16:51:06.535Z,4.37
2018-07-26T16:53:35.483Z,3.25
2018-07-26T16:56:04.536Z,3.45
2018-07-26T16:58:33.671Z,3.40
2018-07-26T17:01:02.689Z,2.80
2018-07-26T17:03:31.764Z,3.40
2018-07-26T17:06:01.033Z,3.00
2018-07-26T17:08:30.103Z,2.95
2018-07-26T17:10:59.192Z,3.15
2018-07-26T17:13:28.270Z,2.83
2018-07-26T17:15:57.348Z,3.20
2018-07-26T17:18:26.420Z,5.60
2018-07-26T17:20:55.475Z,3.20
2018-07-26T17:23:24.548Z,4.33
2018-07-26T17:25:53.600Z,3.62
2018-07-26T17:28:22.641Z,3.05
2018-07-26T17:30:51.857Z,3.17
2018-07-26T17:33:20.992Z,3.05
2018-07-26T17:35:50.070Z,3.22
2018-07-26T17:38:19.127Z,3.35
2018-07-26T17:40:48.196Z,3.05
2018-07-26T17:43:17.240Z,3.05
2018-07-26T17:45:46.304Z,3.20
2018-07-26T17:48:15.355Z,2.70
2018-07-26T17:50:44.425Z,3.10
2018-07-26T17:53:13.476Z,3.05
2018-07-26T17:55:42.553Z,3.12
2018-07-26T17:58:11.616Z,4.53
2018-07-26T18:00:40.682Z,3.02
2018-07-26T18:03:09.736Z,3.50
2018-07-26T18:05:38.812Z,3.17
2018-07-26T18:08:07.888Z,3.30
2018-07-26T18:10:36.962Z,3.05
2018-07-26T18:13:06.224Z,3.15
2018-07-26T18:15:35.304Z,3.20
2018-07-26T18:18:04.099Z,7.08
2018-07-26T18:20:33.036Z,3.50
2018-07-26T18:23:02.105Z,3.20
2018-07-26T18:25:31.317Z,3.12
2018-07-26T18:28:00.095Z,4.53
2018-07-26T18:30:28.769Z,3.35
2018-07-26T18:32:57.748Z,3.20
2018-07-26T18:35:26.796Z,3.42
2018-07-26T18:37:55.931Z,5.40
2018-07-26T18:40:24.932Z,3.55
2018-07-26T18:42:54.002Z,3.37
2018-07-26T18:45:23.052Z,3.80
2018-07-26T18:47:52.108Z,4.10
2018-07-26T18:50:21.156Z,4.15
2018-07-26T18:52:50.370Z,7.47
2018-07-26T18:55:19.362Z,4.42
2018-07-26T18:57:48.420Z,5.35
2018-07-26T19:00:17.270Z,9.60
2018-07-26T19:02:46.214Z,7.08
2018-07-26T19:05:15.266Z,8.20
2018-07-26T19:07:44.327Z,8.05
2018-07-26T19:10:13.373Z,6.42
2018-07-26T19:12:42.417Z,4.08
2018-07-26T19:15:12.471Z,6.62
2018-07-26T19:17:41.527Z,6.83
2018-07-26T19:20:11.496Z,5.75
2018-07-26T19:22:40.543Z,7.03
2018-07-26T19:25:10.798Z,9.33
2018-07-26T19:27:39.968Z,9.63
2018-07-26T19:30:11.763Z,7.62
2018-07-26T19:32:40.903Z,12.58
2018-07-26T19:35:10.255Z,7.30
2018-07-26T19:37:39.427Z,6.62
2018-07-26T19:40:09.764Z,10.03
2018-07-26T19:42:39.186Z,14.60
2018-07-26T19:45:09.117Z,9.63
2018-07-26T19:47:38.716Z,10.25
2018-07-26T19:50:08.109Z,8.00
2018-07-26T19:52:37.671Z,6.58
2018-07-26T19:55:08.936Z,10.57
2018-07-26T19:57:37.988Z,7.23
2018-07-26T20:00:07.764Z,8.33
2018-07-26T20:02:37.691Z,11.17
2018-07-26T20:05:07.504Z,8.30
2018-07-26T20:07:36.552Z,6.70
2018-07-26T20:10:08.028Z,6.93
2018-07-26T20:12:37.096Z,4.53
2018-07-26T20:15:06.357Z,6.33
2018-07-26T20:17:35.463Z,5.40
2018-07-26T20:20:07.016Z,5.97
2018-07-26T20:22:36.142Z,5.50
2018-07-26T20:25:05.020Z,5.87
2018-07-26T20:27:33.939Z,8.43
2018-07-26T20:30:03.204Z,8.20
2018-07-26T20:32:32.280Z,4.53
2018-07-26T20:35:01.472Z,5.70
2018-07-26T20:37:30.512Z,4.27
2018-07-26T20:39:59.576Z,5.13
2018-07-26T20:42:28.626Z,5.30
2018-07-26T20:44:57.688Z,7.07
2018-07-26T20:47:26.733Z,6.77
2018-07-26T20:49:55.857Z,4.33
2018-07-26T20:52:24.988Z,7.43
2018-07-26T20:54:54.092Z,4.83
2018-07-26T20:57:22.890Z,5.50
2018-07-26T20:59:51.844Z,5.00
2018-07-26T21:02:20.974Z,5.00
2018-07-26T21:04:49.988Z,5.10
2018-07-26T21:07:19.081Z,5.50
2018-07-26T21:09:48.120Z,6.97
2018-07-26T21:12:17.183Z,6.13
2018-07-26T21:14:46.241Z,5.20
2018-07-26T21:17:15.291Z,9.70
2018-07-26T21:19:44.355Z,5.40
2018-07-26T21:22:13.416Z,12.70
2018-07-26T21:24:42.468Z,7.10
2018-07-26T21:27:11.580Z,13.97
2018-07-26T21:29:40.644Z,10.07
2018-07-26T21:32:09.746Z,10.60
2018-07-26T21:34:38.787Z,9.67
2018-07-26T21:37:07.864Z,9.87
2018-07-26T21:39:36.903Z,9.07
2018-07-26T21:42:06.252Z,9.13
2018-07-26T21:44:35.335Z,9.50
2018-07-26T21:47:04.155Z,5.83
2018-07-26T21:49:33.108Z,10.17
2018-07-26T21:52:02.177Z,11.80
2018-07-26T21:54:30.971Z,8.23
2018-07-26T21:56:59.912Z,8.67
2018-07-26T21:59:28.952Z,5.80
2018-07-26T22:01:58.020Z,11.23
2018-07-26T22:04:27.073Z,6.00
2018-07-26T22:06:56.132Z,6.37
2018-07-26T22:09:25.176Z,6.77
2018-07-26T22:11:54.241Z,7.93
2018-07-26T22:14:23.304Z,6.77
2018-07-26T22:16:52.364Z,8.23
2018-07-26T22:19:21.399Z,8.13
2018-07-26T22:21:50.463Z,7.23
2018-07-26T22:24:19.496Z,7.03
2018-07-26T22:26:48.563Z,8.40
2018-07-26T22:29:17.599Z,5.00
2018-07-26T22:31:46.636Z,6.50
2018-07-26T22:34:15.692Z,6.83
2018-07-26T22:36:44.736Z,7.93
2018-07-26T22:39:13.794Z,6.87
2018-07-26T22:41:42.743Z,6.73
2018-07-26T22:44:11.672Z,8.63
2018-07-26T22:46:40.711Z,6.07
2018-07-26T22:49:09.771Z,8.93
2018-07-26T22:51:38.579Z,5.90
2018-07-26T22:54:07.271Z,7.97
2018-07-26T22:56:36.187Z,7.73
2018-07-26T22:59:05.306Z,5.77
2018-07-26T23:01:34.345Z,5.77
2018-07-26T23:04:03.396Z,7.97
2018-07-26T23:06:32.444Z,7.00
2018-07-26T23:09:01.500Z,5.73
2018-07-26T23:11:30.543Z,6.47
2018-07-26T23:13:59.600Z,6.20
2018-07-26T23:16:28.712Z,6.67
2018-07-26T23:18:57.515Z,7.97
2018-07-26T23:21:26.432Z,5.97
2018-07-26T23:23:55.487Z,6.63
2018-07-26T23:26:24.283Z,9.23
2018-07-26T23:28:53.219Z,7.60
2018-07-26T23:31:22.268Z,6.30
2018-07-26T23:33:51.340Z,27.00
2018-07-26T23:36:20.388Z,7.47
2018-07-26T23:38:49.448Z,5.97
2018-07-26T23:41:18.283Z,6.57
2018-07-26T23:43:47.216Z,5.53
2018-07-26T23:46:16.260Z,5.63
2018-07-26T23:48:45.324Z,5.60
2018-07-26T23:51:14.280Z,7.03
2018-07-26T23:53:43.219Z,10.40
2018-07-26T23:56:12.264Z,7.23
2018-07-26T23:58:41.333Z,24.80
